Bookmark and Share
Track history (hours):
 

Pilot L239

Last reported at 2014-Apr-16 18:06 UTC. Time now 2014-Apr-16 19:16 UTC.
Position N 60°06' E 024°59'.

Length 15 m.

Type: Pilot. MMSI: 230035440.

NotesDate/timePositionNaut miles runAvg speedWind from/ knotsBaromVisibWave heightAir tempDewpointWater temp
2014-Apr-16 18:06N 60°06' E 024°59'1 1.3
2014-Apr-16 17:29N 60°06' E 025°00'1 0.9
2014-Apr-16 16:16N 60°06' E 024°58'0 0.0
2014-Apr-16 15:33N 60°06' E 024°58'0 0.0
2014-Apr-16 14:24N 60°06' E 024°58'0 0.0
2014-Apr-16 13:23N 60°06' E 024°58'0 0.0
2014-Apr-16 12:32N 60°06' E 024°58'0 0.0
2014-Apr-16 11:30N 60°06' E 024°58'0 0.0
2014-Apr-16 10:07N 60°06' E 024°58'0 0.0
2014-Apr-16 09:13N 60°06' E 024°58'0 0.0
2014-Apr-16 08:31N 60°06' E 024°58'0 0.0
2014-Apr-16 07:04N 60°06' E 024°58'0 0.0
2014-Apr-16 06:28N 60°06' E 024°58'0 0.0
2014-Apr-16 05:30N 60°06' E 024°58'0 0.0
2014-Apr-16 04:32N 60°06' E 024°58'0 0.0
2014-Apr-15 16:06N 60°06' E 024°58'0 0.0
2014-Apr-15 12:33N 60°06' E 024°58'0 0.4
2014-Apr-15 11:32N 60°06' E 024°59'0 0.4
2014-Apr-15 10:34N 60°06' E 024°58'0 0.0
2014-Apr-15 06:33N 60°06' E 024°58'0 0.0
2014-Apr-15 03:29N 60°06' E 024°58'0 0.0
2014-Apr-15 02:34N 60°06' E 024°58'1 0.1
2014-Apr-14 16:34N 60°06' E 024°60'6 5.5
2014-Apr-14 15:34N 60°05' E 025°10'6 2.9
2014-Apr-14 13:30N 60°06' E 024°58'0 0.0
2014-Apr-14 08:32N 60°06' E 024°58'6 2.8
2014-Apr-14 06:33N 60°05' E 025°09'8 0.4
2014-Apr-13 11:18N 60°10' E 024°58'1 0.4
2014-Apr-13 09:34N 60°10' E 024°59'4 0.2
2014-Apr-12 17:21N 60°06' E 024°58'0 0.0
2014-Apr-12 14:28N 60°06' E 024°58'0 0.0
2014-Apr-11 12:10N 60°06' E 024°58'0 0.0
2014-Apr-11 11:32N 60°06' E 024°58'3 2.8
2014-Apr-11 10:33N 60°09' E 024°60'3 2.7
2014-Apr-11 09:32N 60°06' E 024°58'1 1.2
2014-Apr-11 08:34N 60°07' E 024°59'3 2.1
2014-Apr-11 07:15N 60°10' E 024°58'4 1.4
2014-Apr-11 04:29N 60°06' E 024°58'4 3.9
2014-Apr-11 03:33N 60°10' E 025°00'3 1.4
2014-Apr-11 01:12N 60°07' E 025°04'3 0.5
2014-Apr-10 19:25N 60°06' E 024°58'0 0.0
2014-Apr-10 12:33N 60°06' E 024°59'4 1.7
2014-Apr-10 10:21N 60°10' E 024°58'4 4.9
2014-Apr-10 09:33N 60°06' E 024°58'0 0.0
2014-Apr-10 08:29N 60°06' E 024°58'1 1.1
2014-Apr-10 07:34N 60°07' E 025°00'1 0.3
2014-Apr-10 04:23N 60°06' E 024°58'3 0.3
2014-Apr-09 17:33N 60°07' E 025°05'3 0.5
2014-Apr-09 11:25N 60°06' E 024°58'3 1.9
2014-Apr-09 09:33N 60°07' E 025°05'3 1.7
2014-Apr-09 07:28N 60°06' E 024°58'0 0.0
2014-Apr-09 06:32N 60°06' E 024°58'0 0.0
2014-Apr-09 05:32N 60°06' E 024°58'2 1.8
2014-Apr-09 04:33N 60°08' E 024°59'2 1.6
2014-Apr-09 03:28N 60°06' E 024°58'1 0.1
2014-Apr-08 18:32N 60°07' E 025°01'1 1.4
2014-Apr-08 17:33N 60°07' E 025°03'3 1.7
2014-Apr-08 16:04N 60°06' E 024°58'3 5.8
2014-Apr-08 15:33N 60°07' E 025°04'3 2.9
2014-Apr-08 14:32N 60°06' E 024°58'0 0.0
2014-Apr-08 13:32N 60°06' E 024°58'0 0.0
2014-Apr-08 12:31N 60°06' E 024°58'3 3.4
2014-Apr-08 11:33N 60°07' E 025°05'5 3.4
2014-Apr-08 10:07N 60°10' E 024°58'0 0.0
2014-Apr-08 09:30N 60°10' E 024°58'0 0.0
2014-Apr-08 08:14N 60°10' E 024°58'0 0.0
2014-Apr-08 05:12N 60°10' E 024°58'0 0.0
2014-Apr-08 04:33N 60°10' E 024°58'4 3.6
2014-Apr-08 03:29N 60°06' E 024°58'4 1.0
2014-Apr-07 23:17N 60°06' E 025°07'4 4.4
2014-Apr-07 22:28N 60°07' E 025°00'3 2.4
2014-Apr-07 21:23N 60°07' E 025°05'2 2.2
2014-Apr-07 20:15N 60°07' E 025°00'1 0.7
2014-Apr-07 19:12N 60°07' E 024°59'0 0.1
2014-Apr-07 17:06N 60°06' E 024°59'6 5.8
2014-Apr-07 16:07N 60°05' E 025°10'6 3.2
2014-Apr-07 14:16N 60°06' E 024°58'4 4.9
2014-Apr-07 13:29N 60°10' E 024°58'0 0.0
2014-Apr-07 10:25N 60°10' E 024°58'0 0.0
2014-Apr-07 08:29N 60°10' E 024°58'1 0.7
2014-Apr-07 07:33N 60°10' E 024°59'4 1.8
2014-Apr-07 05:33N 60°06' E 024°58'0 0.0
2014-Apr-07 04:16N 60°06' E 024°58'0 0.0
2014-Apr-07 03:18N 60°06' E 024°58'5 0.6
2014-Apr-06 18:24N 60°05' E 025°09'  

Dump ship's entire track history

sailing weather and tide predictions

Pilot L239 — OJ9461 — position and weather